Time;durP1;ratioP1;P1;durP2;ratioP2;P2;SDS_P1;SDS_P2;PMS_P1;PMS_P2;Temp;Humidity;BMP_temperature;BMP_pressure;BME280_temperature;BME280_humidity;BME280_pressure;Samples;Min_cycle;Max_cycle;Signal;HPM_P1;HPM_P2
2023/08/12 00:02:11;;;;;;;11.10;8.10;;;;;;;21.46;100.00;101587.78;5266250;28;20037;-83
2023/08/12 00:04:45;;;;;;;15.93;7.37;;;;;;;21.42;100.00;101586.22;5265709;28;20457;-84
2023/08/12 00:07:17;;;;;;;12.45;7.57;;;;;;;21.47;100.00;101579.75;5268176;28;20108;-83
2023/08/12 00:09:49;;;;;;;12.80;7.80;;;;;;;21.32;100.00;101591.06;5275981;28;20064;-83
2023/08/12 00:12:20;;;;;;;15.70;8.30;;;;;;;21.31;100.00;101582.25;5280721;28;20093;-84
2023/08/12 00:14:52;;;;;;;14.47;8.67;;;;;;;21.36;100.00;101582.03;5274479;28;20064;-85
2023/08/12 00:17:23;;;;;;;12.70;8.10;;;;;;;21.34;100.00;101583.91;5266781;28;20456;-83
2023/08/12 00:19:55;;;;;;;12.93;8.38;;;;;;;21.34;100.00;101573.28;5268040;28;20107;-84
2023/08/12 00:22:26;;;;;;;14.10;9.05;;;;;;;21.29;100.00;101572.66;5265278;28;20404;-83
2023/08/12 00:24:58;;;;;;;11.43;8.67;;;;;;;21.32;100.00;101564.56;5266524;28;20396;-84
2023/08/12 00:27:29;;;;;;;14.93;8.60;;;;;;;21.27;100.00;101561.25;5266701;28;20516;-84
2023/08/12 00:30:01;;;;;;;14.23;9.00;;;;;;;21.28;100.00;101565.63;5267013;28;20389;-83
2023/08/12 00:32:32;;;;;;;13.07;8.57;;;;;;;21.36;100.00;101555.50;5265159;28;20440;-85
2023/08/12 00:35:05;;;;;;;13.57;8.93;;;;;;;21.25;100.00;101556.03;5264563;28;20476;-82
2023/08/12 00:37:36;;;;;;;11.90;7.68;;;;;;;21.22;100.00;101552.63;5263811;28;20032;-83
2023/08/12 00:40:08;;;;;;;15.53;9.10;;;;;;;21.29;100.00;101552.28;5265336;28;20445;-82
2023/08/12 00:42:40;;;;;;;10.55;8.20;;;;;;;21.35;100.00;101548.50;5264693;28;20116;-83
2023/08/12 00:45:13;;;;;;;11.23;8.00;;;;;;;21.29;100.00;101546.13;5265868;28;20536;-81
2023/08/12 00:47:44;;;;;;;11.43;9.25;;;;;;;21.28;100.00;101541.75;5267241;28;20041;-82
2023/08/12 00:50:16;;;;;;;12.93;8.83;;;;;;;21.22;100.00;101542.91;5263521;28;20037;-83
2023/08/12 00:52:49;;;;;;;12.63;8.23;;;;;;;21.13;100.00;101543.31;5264464;28;20057;-83
2023/08/12 00:55:21;;;;;;;16.00;10.98;;;;;;;21.20;100.00;101538.59;5264694;28;20480;-83
2023/08/12 00:57:52;;;;;;;14.82;9.23;;;;;;;21.13;100.00;101541.50;5264148;28;20021;-83
2023/08/12 01:00:24;;;;;;;15.67;9.40;;;;;;;21.21;100.00;101537.66;5264245;28;20476;-85
2023/08/12 01:02:56;;;;;;;15.98;10.02;;;;;;;21.24;100.00;101532.22;5263079;28;20119;-83
2023/08/12 01:05:29;;;;;;;12.50;9.27;;;;;;;21.17;100.00;101528.13;5265366;28;20496;-83
2023/08/12 01:08:01;;;;;;;14.20;9.27;;;;;;;21.11;100.00;101530.13;5264419;28;20441;-84
2023/08/12 01:10:37;;;;;;;16.13;9.40;;;;;;;21.02;100.00;101527.88;5264203;28;20060;-82
2023/08/12 01:13:37;;;;;;;12.85;9.25;;;;;;;21.07;100.00;101525.88;5263748;28;20025;-83
2023/08/12 01:16:13;;;;;;;13.48;9.70;;;;;;;21.05;100.00;101530.41;5263914;28;20084;-82
2023/08/12 01:18:44;;;;;;;12.60;9.30;;;;;;;20.92;100.00;101518.63;5263020;28;20029;-83
2023/08/12 01:21:17;;;;;;;13.20;9.93;;;;;;;20.91;100.00;101515.13;5264918;28;20353;-84
2023/08/12 01:23:48;;;;;;;;;;;;;;;21.05;100.00;101508.34;5265645;28;20032;-83
2023/08/12 01:26:19;;;;;;;12.63;8.93;;;;;;;20.89;100.00;101500.22;5279259;28;19904;-82
2023/08/12 01:28:51;;;;;;;12.23;9.00;;;;;;;20.92;100.00;101498.28;5288675;28;20017;-83
2023/08/12 01:31:34;;;;;;;13.97;9.50;;;;;;;20.86;100.00;101495.91;5287685;28;20033;-83
2023/08/12 01:34:21;;;;;;;14.52;9.00;;;;;;;20.88;100.00;101495.84;5285500;28;20061;-84
2023/08/12 01:36:56;;;;;;;15.27;9.68;;;;;;;20.73;100.00;101490.28;5285222;28;20025;-85
2023/08/12 01:39:30;;;;;;;14.27;8.45;;;;;;;20.75;100.00;101493.75;5263924;28;20039;-84
2023/08/12 01:42:03;;;;;;;15.13;9.23;;;;;;;20.73;100.00;101492.09;5263034;28;20068;-85
2023/08/12 01:44:34;;;;;;;;;;;;;;;20.86;100.00;101489.75;5263360;28;20078;-85
2023/08/12 01:47:05;;;;;;;14.70;9.33;;;;;;;20.76;100.00;101492.81;5263221;28;20020;-84
2023/08/12 01:49:37;;;;;;;11.90;8.57;;;;;;;20.72;100.00;101485.06;5263098;28;20037;-84
2023/08/12 01:52:08;;;;;;;12.02;8.32;;;;;;;20.75;100.00;101482.28;5261971;28;20029;-85
2023/08/12 01:54:40;;;;;;;12.93;7.33;;;;;;;20.73;100.00;101486.78;5263250;28;20032;-84
2023/08/12 01:57:12;;;;;;;11.37;7.37;;;;;;;20.77;100.00;101483.94;5263019;28;20033;-83
2023/08/12 01:59:43;;;;;;;12.00;8.05;;;;;;;20.66;100.00;101480.91;5261902;28;20041;-85
2023/08/12 02:02:15;;;;;;;14.38;8.93;;;;;;;20.66;100.00;101480.06;5262081;28;20045;-84
2023/08/12 02:04:47;;;;;;;13.13;8.00;;;;;;;20.65;100.00;101479.16;5263124;28;20036;-85
2023/08/12 02:07:18;;;;;;;12.10;7.80;;;;;;;20.57;100.00;101470.66;5263339;28;20274;-84
2023/08/12 02:09:49;;;;;;;14.37;7.87;;;;;;;20.63;100.00;101470.41;5261731;28;20033;-86
2023/08/12 02:12:22;;;;;;;12.25;7.88;;;;;;;20.54;100.00;101473.44;5262553;28;20049;-83
2023/08/12 02:14:53;;;;;;;12.10;8.00;;;;;;;20.52;100.00;101467.38;5262854;28;20052;-85
2023/08/12 02:17:25;;;;;;;9.47;7.17;;;;;;;20.51;100.00;101465.63;5263220;28;20053;-85
2023/08/12 02:19:56;;;;;;;15.57;8.10;;;;;;;20.49;100.00;101468.34;5263074;28;20029;-84
2023/08/12 02:22:29;;;;;;;13.33;7.53;;;;;;;20.44;100.00;101464.19;5262709;28;20040;-85
2023/08/12 02:25:00;;;;;;;11.45;7.75;;;;;;;20.43;100.00;101466.00;5263155;28;20047;-84
2023/08/12 02:27:32;;;;;;;10.13;7.20;;;;;;;20.44;100.00;101458.91;5263068;28;20028;-85
2023/08/12 02:30:04;;;;;;;12.17;7.77;;;;;;;20.48;100.00;101463.13;5262632;28;20033;-84
2023/08/12 02:32:35;;;;;;;14.80;7.93;;;;;;;20.39;100.00;101453.81;5262096;28;20473;-84
2023/08/12 02:35:07;;;;;;;12.83;6.93;;;;;;;20.31;100.00;101453.28;5265863;28;20122;-84
2023/08/12 02:37:39;;;;;;;13.32;7.88;;;;;;;20.33;100.00;101444.31;5263917;28;20029;-83
2023/08/12 02:40:10;;;;;;;10.67;7.53;;;;;;;20.35;100.00;101449.56;5264381;28;20501;-85
2023/08/12 02:42:42;;;;;;;10.38;7.40;;;;;;;20.29;100.00;101447.19;5274242;28;20032;-83
2023/08/12 02:45:13;;;;;;;12.40;8.27;;;;;;;20.30;100.00;101444.47;5286061;28;20016;-84
2023/08/12 02:47:44;;;;;;;13.83;7.10;;;;;;;20.24;100.00;101439.44;5286641;28;20033;-83
2023/08/12 02:50:16;;;;;;;9.67;7.93;;;;;;;20.22;100.00;101435.97;5286486;28;20044;-84
2023/08/12 02:52:47;;;;;;;13.20;7.70;;;;;;;20.14;100.00;101433.69;5284304;28;20044;-84
2023/08/12 02:55:19;;;;;;;12.93;7.47;;;;;;;20.20;100.00;101424.59;5269143;28;20120;-83
2023/08/12 02:57:50;;;;;;;9.63;6.13;;;;;;;20.13;100.00;101426.66;5263170;28;20033;-83
2023/08/12 03:00:21;;;;;;;10.87;6.93;;;;;;;20.17;100.00;101432.69;5263026;28;20036;-84
2023/08/12 03:02:54;;;;;;;13.40;7.23;;;;;;;20.14;100.00;101430.16;5265997;28;20171;-84
2023/08/12 03:05:25;;;;;;;13.10;6.95;;;;;;;20.13;100.00;101423.16;5266299;28;20075;-85
2023/08/12 03:07:57;;;;;;;9.40;6.47;;;;;;;20.09;100.00;101418.91;5266023;28;20053;-84
2023/08/12 03:10:29;;;;;;;10.98;6.13;;;;;;;20.09;100.00;101421.56;5265310;28;20040;-84
2023/08/12 03:13:00;;;;;;;12.50;6.07;;;;;;;20.07;100.00;101415.47;5266255;28;20025;-85
2023/08/12 03:15:31;;;;;;;9.97;6.63;;;;;;;20.11;100.00;101428.53;5249067;28;20551;-84
2023/08/12 03:18:03;;;;;;;8.37;5.97;;;;;;;20.06;100.00;101419.03;5266696;28;20059;-84
2023/08/12 03:20:34;;;;;;;10.18;6.05;;;;;;;20.04;100.00;101412.06;5266759;28;20040;-86
2023/08/12 03:23:06;;;;;;;11.03;6.10;;;;;;;20.05;100.00;101410.25;5267030;28;20037;-83
2023/08/12 03:25:37;;;;;;;12.70;6.10;;;;;;;20.08;100.00;101399.53;5266603;28;20113;-83
2023/08/12 03:28:09;;;;;;;9.43;6.57;;;;;;;20.00;100.00;101402.50;5266865;28;20515;-86
2023/08/12 03:30:40;;;;;;;11.47;6.63;;;;;;;20.09;100.00;101400.38;5266368;28;20123;-85
2023/08/12 03:33:11;;;;;;;10.43;6.27;;;;;;;20.10;100.00;101402.13;5268190;28;20025;-85
2023/08/12 03:35:47;;;;;;;10.53;6.67;;;;;;;20.02;100.00;101403.28;5269336;28;20025;-86
2023/08/12 03:38:18;;;;;;;14.75;6.85;;;;;;;19.98;100.00;101388.50;5269664;28;20112;-86
2023/08/12 03:40:50;;;;;;;14.30;6.67;;;;;;;19.90;100.00;101381.78;5267838;28;20072;-85
2023/08/12 03:43:21;;;;;;;10.00;6.37;;;;;;;19.86;100.00;101381.91;5264492;28;20041;-83
2023/08/12 03:45:52;;;;;;;7.33;5.40;;;;;;;19.79;100.00;101382.25;5266738;28;20410;-84
2023/08/12 03:48:24;;;;;;;10.17;6.10;;;;;;;19.76;100.00;101385.88;5266333;28;20040;-84
2023/08/12 03:50:55;;;;;;;11.83;5.60;;;;;;;19.78;100.00;101384.03;5265884;28;20511;-84
2023/08/12 03:53:26;;;;;;;9.60;5.70;;;;;;;19.71;100.00;101376.41;5265950;28;20433;-84
2023/08/12 03:55:58;;;;;;;10.30;5.70;;;;;;;19.67;100.00;101373.88;5265406;28;20032;-84
2023/08/12 03:58:29;;;;;;;9.00;5.37;;;;;;;19.69;100.00;101373.81;5265511;28;20029;-84
2023/08/12 04:01:01;;;;;;;11.43;5.60;;;;;;;19.70;100.00;101362.28;5265437;28;20060;-84
2023/08/12 04:03:32;;;;;;;8.23;4.63;;;;;;;19.73;100.00;101375.38;5265310;28;20033;-85
2023/08/12 04:06:04;;;;;;;7.43;4.57;;;;;;;19.65;100.00;101374.84;5265260;28;20465;-84
2023/08/12 04:08:35;;;;;;;9.87;5.20;;;;;;;19.67;100.00;101371.22;5265548;28;20444;-85
2023/08/12 04:11:06;;;;;;;9.00;5.13;;;;;;;19.64;100.00;101368.72;5265631;28;20033;-85
2023/08/12 04:13:38;;;;;;;8.50;4.57;;;;;;;19.66;100.00;101356.28;5263284;28;20108;-84
2023/08/12 04:16:09;;;;;;;9.73;5.13;;;;;;;19.65;100.00;101349.25;5267433;28;20486;-84
2023/08/12 04:18:40;;;;;;;10.43;5.77;;;;;;;19.65;100.00;101343.97;5264661;28;20049;-86
2023/08/12 04:21:12;;;;;;;9.20;4.87;;;;;;;19.66;100.00;101352.78;5265954;28;20044;-86
2023/08/12 04:23:43;;;;;;;10.10;5.85;;;;;;;19.64;100.00;101358.13;5266012;28;20031;-85
2023/08/12 04:26:15;;;;;;;9.80;5.53;;;;;;;19.65;100.00;101354.53;5265570;28;20029;-85
2023/08/12 04:28:46;;;;;;;7.87;5.40;;;;;;;19.69;100.00;101357.94;5265961;28;20064;-84
2023/08/12 04:31:17;;;;;;;8.20;5.93;;;;;;;19.64;100.00;101360.78;5265502;28;20131;-86
2023/08/12 04:33:52;;;;;;;11.20;6.10;;;;;;;19.64;100.00;101355.50;5266087;28;20064;-85
2023/08/12 04:36:23;;;;;;;9.85;6.28;;;;;;;19.62;100.00;101365.25;5266241;28;20056;-85
2023/08/12 04:38:55;;;;;;;9.77;6.03;;;;;;;19.66;100.00;101366.84;5263497;28;20057;-83
2023/08/12 04:41:27;;;;;;;8.97;5.77;;;;;;;19.65;100.00;101365.13;5265677;28;20040;-83
2023/08/12 04:43:58;;;;;;;12.00;7.40;;;;;;;19.63;100.00;101344.97;5265743;28;20465;-83
2023/08/12 04:46:29;;;;;;;16.13;7.83;;;;;;;19.61;100.00;101336.22;5264823;28;20033;-83
2023/08/12 04:49:01;;;;;;;13.57;7.23;;;;;;;19.47;100.00;101335.03;5265524;28;20064;-84
2023/08/12 04:51:33;;;;;;;11.83;7.80;;;;;;;19.38;100.00;101342.47;5264930;28;20033;-85
2023/08/12 04:54:04;;;;;;;;;;;;;;;19.25;100.00;101339.47;5266211;28;20448;-86
2023/08/12 04:56:36;;;;;;;14.73;6.47;;;;;;;19.18;100.00;101345.94;5269226;28;19916;-87
2023/08/12 04:59:08;;;;;;;9.63;5.63;;;;;;;18.98;100.00;101334.34;5265081;28;20330;-83
2023/08/12 05:01:39;;;;;;;13.40;6.13;;;;;;;19.03;100.00;101329.75;5266409;28;20377;-85
2023/08/12 05:04:11;;;;;;;8.87;6.20;;;;;;;19.00;100.00;101318.44;5265942;28;20033;-84
2023/08/12 05:06:42;;;;;;;11.60;6.47;;;;;;;18.91;100.00;101330.22;5264679;28;20040;-84
2023/08/12 05:09:14;;;;;;;11.77;6.60;;;;;;;18.90;100.00;101318.81;5263247;28;20029;-84
2023/08/12 05:11:45;;;;;;;10.77;6.72;;;;;;;18.82;100.00;101326.16;5263983;28;20108;-84
2023/08/12 05:14:17;;;;;;;10.40;7.23;;;;;;;18.88;100.00;101318.00;5268277;28;20044;-85
2023/08/12 05:16:48;;;;;;;10.03;7.20;;;;;;;18.87;100.00;101318.06;5285405;28;20072;-84
2023/08/12 05:19:19;;;;;;;11.27;7.90;;;;;;;18.84;100.00;101313.78;5286127;28;20028;-85
2023/08/12 05:21:51;;;;;;;11.30;7.53;;;;;;;18.87;100.00;101320.69;5276403;28;20061;-86
2023/08/12 05:24:22;;;;;;;10.10;7.47;;;;;;;18.81;100.00;101323.56;5271758;28;20025;-87
2023/08/12 05:26:54;;;;;;;10.40;7.57;;;;;;;18.88;100.00;101315.34;5271675;28;20032;-86
2023/08/12 05:29:25;;;;;;;12.90;7.47;;;;;;;18.80;100.00;101304.19;5264857;28;20032;-84
2023/08/12 05:31:56;;;;;;;9.47;7.00;;;;;;;18.82;100.00;101325.28;5265000;28;20065;-86
2023/08/12 05:34:28;;;;;;;10.93;6.53;;;;;;;18.73;100.00;101315.94;5264523;28;20025;-85
2023/08/12 05:36:59;;;;;;;8.60;6.17;;;;;;;18.75;100.00;101304.38;5267252;28;20039;-86
2023/08/12 05:39:31;;;;;;;10.27;7.73;;;;;;;18.78;100.00;101313.97;5265711;28;20396;-86
2023/08/12 05:42:02;;;;;;;8.57;6.05;;;;;;;18.81;100.00;101310.34;5265223;28;20041;-85
2023/08/12 05:44:33;;;;;;;8.07;5.80;;;;;;;18.73;100.00;101306.22;5265037;28;20329;-85
2023/08/12 05:47:05;;;;;;;8.10;5.90;;;;;;;18.83;100.00;101296.16;5265650;28;20036;-86
2023/08/12 05:49:36;;;;;;;5.80;5.13;;;;;;;18.77;100.00;101310.47;5263708;28;20075;-87
2023/08/12 05:52:08;;;;;;;8.63;5.17;;;;;;;18.73;100.00;101303.56;5266195;28;20442;-86
2023/08/12 05:54:39;;;;;;;6.17;4.83;;;;;;;18.76;100.00;101300.81;5266273;28;20112;-87
2023/08/12 05:57:10;;;;;;;7.23;5.13;;;;;;;18.73;100.00;101302.72;5266351;28;20124;-85
2023/08/12 05:59:42;;;;;;;6.00;5.03;;;;;;;18.75;100.00;101298.25;5266894;28;20488;-79
2023/08/12 06:02:13;;;;;;;6.03;4.73;;;;;;;18.70;100.00;101303.69;5264028;28;20053;-82
2023/08/12 06:04:44;;;;;;;7.40;5.50;;;;;;;18.70;100.00;101303.69;5264469;28;20056;-82
2023/08/12 06:07:16;;;;;;;7.63;5.13;;;;;;;18.72;100.00;101309.81;5264724;28;20044;-82
2023/08/12 06:09:47;;;;;;;5.83;4.93;;;;;;;18.83;100.00;101300.59;5264408;28;20040;-82
2023/08/12 06:12:19;;;;;;;7.37;5.57;;;;;;;18.83;100.00;101290.03;5263824;28;20025;-78
2023/08/12 06:14:50;;;;;;;7.23;4.93;;;;;;;18.87;100.00;101295.16;5263946;28;20635;-83
2023/08/12 06:17:22;;;;;;;6.80;5.20;;;;;;;18.97;100.00;101281.59;5263474;28;20053;-82
2023/08/12 06:19:53;;;;;;;6.77;5.20;;;;;;;18.97;100.00;101284.25;5263728;28;20396;-83
2023/08/12 06:22:24;;;;;;;6.50;4.97;;;;;;;18.93;100.00;101276.44;5263878;28;20424;-84
2023/08/12 06:24:56;;;;;;;6.77;4.73;;;;;;;18.88;100.00;101281.00;5262910;28;20098;-83
2023/08/12 06:27:27;;;;;;;5.23;4.63;;;;;;;18.98;100.00;101276.22;5264032;28;20036;-83
2023/08/12 06:29:59;;;;;;;6.43;4.77;;;;;;;19.03;100.00;101276.03;5265494;28;20120;-83
2023/08/12 06:32:30;;;;;;;5.40;3.97;;;;;;;19.09;100.00;101276.69;5270766;28;20402;-84
2023/08/12 06:35:02;;;;;;;6.30;4.70;;;;;;;19.15;100.00;101262.34;5284582;28;20053;-84
2023/08/12 06:37:33;;;;;;;5.45;3.97;;;;;;;19.05;100.00;101267.13;5282552;28;20040;-83
2023/08/12 06:40:05;;;;;;;4.77;3.80;;;;;;;19.15;100.00;101270.25;5273605;28;20456;-83
2023/08/12 06:42:37;;;;;;;4.20;3.65;;;;;;;19.24;100.00;101275.19;5264425;28;20048;-79
2023/08/12 06:45:09;;;;;;;5.23;3.43;;;;;;;19.18;100.00;101270.13;5266864;28;20040;-83
2023/08/12 06:47:40;;;;;;;4.80;4.28;;;;;;;19.30;100.00;101263.47;5266808;28;20057;-82
2023/08/12 06:50:11;;;;;;;22.87;3.90;;;;;;;19.46;100.00;101259.28;5265848;28;20037;-84
2023/08/12 06:52:43;;;;;;;4.83;3.83;;;;;;;19.46;100.00;101261.06;5265660;28;20121;-83
2023/08/12 06:55:14;;;;;;;4.57;3.47;;;;;;;19.57;100.00;101261.44;5265663;28;20048;-83
2023/08/12 06:57:45;;;;;;;4.70;3.73;;;;;;;19.58;100.00;101252.59;5264195;28;20060;-82
2023/08/12 07:00:17;;;;;;;3.60;3.20;;;;;;;19.61;100.00;101256.88;5266255;28;20362;-83
2023/08/12 07:02:48;;;;;;;4.60;3.60;;;;;;;19.67;100.00;101252.22;5266325;28;20028;-83
2023/08/12 07:05:19;;;;;;;4.80;3.40;;;;;;;19.77;100.00;101252.72;5266828;28;20119;-84
2023/08/12 07:07:51;;;;;;;3.80;3.23;;;;;;;19.78;100.00;101257.03;5271679;28;20072;-82
2023/08/12 07:10:22;;;;;;;4.37;3.27;;;;;;;19.76;100.00;101250.13;5269637;28;20029;-82
2023/08/12 07:12:54;;;;;;;4.53;3.73;;;;;;;19.75;100.00;101254.50;5267178;28;20668;-84
2023/08/12 07:15:29;;;;;;;5.93;3.53;;;;;;;19.77;100.00;101254.47;5269111;28;20041;-82
2023/08/12 07:18:01;;;;;;;6.18;3.97;;;;;;;19.78;100.00;101257.03;5241660;28;20099;-77
2023/08/12 07:20:32;;;;;;;4.40;3.80;;;;;;;19.81;100.00;101251.63;5246894;28;20025;-81
2023/08/12 07:23:04;;;;;;;4.85;4.15;;;;;;;19.76;100.00;101258.91;5247533;28;20025;-83
2023/08/12 07:25:35;;;;;;;3.90;3.37;;;;;;;19.80;100.00;101256.97;5247882;28;20030;-83
2023/08/12 07:28:07;;;;;;;4.60;3.90;;;;;;;19.83;100.00;101248.91;5246009;28;20073;-84
2023/08/12 07:30:38;;;;;;;5.30;4.70;;;;;;;19.78;100.00;101258.84;5247647;28;20116;-84
2023/08/12 07:33:09;;;;;;;5.13;4.20;;;;;;;19.76;100.00;101258.06;5245560;28;20057;-83
2023/08/12 07:35:41;;;;;;;4.90;4.27;;;;;;;19.71;100.00;101257.38;5246443;28;20029;-84
2023/08/12 07:38:12;;;;;;;3.97;3.60;;;;;;;19.65;100.00;101251.41;5246916;28;20384;-84
2023/08/12 07:40:44;;;;;;;4.23;3.77;;;;;;;19.59;100.00;101256.09;5246058;28;20025;-83
2023/08/12 07:43:15;;;;;;;5.00;3.57;;;;;;;19.51;100.00;101256.41;5246297;28;20030;-82
2023/08/12 07:45:52;;;;;;;5.13;4.07;;;;;;;19.53;100.00;101249.31;5246259;28;20116;-83
2023/08/12 07:48:24;;;;;;;4.40;3.83;;;;;;;19.52;100.00;101250.22;5252293;28;20041;-83
2023/08/12 07:50:59;;;;;;;3.65;3.33;;;;;;;19.54;100.00;101248.34;5265831;28;20010;-81
2023/08/12 07:53:31;;;;;;;5.88;3.60;;;;;;;19.53;100.00;101249.31;5259603;28;20034;-82
2023/08/12 07:56:02;;;;;;;4.03;3.60;;;;;;;19.60;100.00;101250.75;5246149;28;20026;-83
2023/08/12 07:58:34;;;;;;;3.80;3.40;;;;;;;19.58;100.00;101255.25;5254131;28;20355;-82
2023/08/12 08:01:06;;;;;;;4.80;3.57;;;;;;;19.57;100.00;101258.81;5247047;28;20026;-81
2023/08/12 08:03:37;;;;;;;4.18;3.40;;;;;;;19.65;100.00;101263.78;5244972;28;20039;-82
2023/08/12 08:06:08;;;;;;;2.43;2.23;;;;;;;19.78;100.00;101259.69;5248797;28;20120;-80
2023/08/12 08:08:40;;;;;;;2.83;2.53;;;;;;;20.12;100.00;101265.28;5252262;28;20465;-79
2023/08/12 08:11:11;;;;;;;3.00;2.53;;;;;;;20.28;100.00;101252.22;5255490;28;20417;-82
2023/08/12 08:13:42;;;;;;;3.10;2.67;;;;;;;20.26;100.00;101276.09;5253129;28;20030;-81
2023/08/12 08:16:14;;;;;;;2.20;2.00;;;;;;;20.22;100.00;101274.50;5257558;28;20068;-81
2023/08/12 08:18:45;;;;;;;2.33;2.10;;;;;;;20.22;100.00;101278.03;5270232;28;20025;-81
2023/08/12 08:21:16;;;;;;;2.93;2.30;;;;;;;20.26;100.00;101278.75;5271450;28;20029;-82
2023/08/12 08:23:48;;;;;;;2.17;1.97;;;;;;;20.16;100.00;101280.94;5269110;28;20032;-80
2023/08/12 08:26:19;;;;;;;2.70;2.50;;;;;;;20.30;100.00;101282.09;5269976;28;20041;-82
2023/08/12 08:28:51;;;;;;;2.90;2.70;;;;;;;20.43;100.00;101285.06;5269622;28;20040;-80
2023/08/12 08:31:22;;;;;;;2.80;2.60;;;;;;;20.55;100.00;101277.41;5267649;28;20025;-78
2023/08/12 08:33:54;;;;;;;2.70;2.50;;;;;;;20.73;100.00;101288.94;5268357;28;20025;-81
2023/08/12 08:36:25;;;;;;;3.33;3.00;;;;;;;20.92;100.00;101288.06;5262087;28;20041;-78
2023/08/12 08:38:56;;;;;;;3.90;3.50;;;;;;;21.00;100.00;101293.88;5265840;28;20025;-80
2023/08/12 08:41:31;;;;;;;4.10;3.63;;;;;;;21.06;100.00;101295.38;5264770;28;20494;-81
2023/08/12 08:44:07;;;;;;;4.63;4.22;;;;;;;21.05;100.00;101291.84;5262245;28;20039;-81
2023/08/12 08:46:39;;;;;;;4.78;4.38;;;;;;;21.21;100.00;101304.34;5263833;28;20372;-80
2023/08/12 08:49:12;;;;;;;5.25;4.85;;;;;;;20.99;100.00;101302.72;5263059;28;20136;-80
2023/08/12 08:51:45;;;;;;;5.55;5.15;;;;;;;21.12;100.00;101314.47;5262508;28;20052;-81
2023/08/12 08:54:18;;;;;;;6.25;5.75;;;;;;;20.92;100.00;101312.78;5263857;28;20086;-80
2023/08/12 08:56:49;;;;;;;6.80;6.30;;;;;;;20.93;100.00;101311.00;5264250;28;20059;-81
2023/08/12 08:59:21;;;;;;;7.10;6.27;;;;;;;20.71;100.00;101303.22;5259431;28;20120;-80
2023/08/12 09:01:54;;;;;;;6.97;6.38;;;;;;;20.70;100.00;101299.69;5263175;28;20025;-80
2023/08/12 09:04:27;;;;;;;7.18;6.55;;;;;;;20.65;100.00;101300.84;5259727;28;20495;-80
2023/08/12 09:06:59;;;;;;;;;;;;;;;20.58;100.00;101310.84;5258713;28;20037;-82
2023/08/12 09:09:31;;;;;;;6.10;5.60;;;;;;;20.53;100.00;101310.19;5257648;28;19916;-79
2023/08/12 09:12:04;;;;;;;4.70;4.30;;;;;;;20.43;100.00;101320.34;5247126;28;20108;-81
2023/08/12 09:14:35;;;;;;;5.50;4.10;;;;;;;20.65;100.00;101320.22;5245983;28;20033;-81
2023/08/12 09:17:07;;;;;;;3.63;3.33;;;;;;;20.72;100.00;101326.97;5262097;28;20064;-82
2023/08/12 09:19:38;;;;;;;2.92;2.72;;;;;;;20.79;100.00;101332.00;5262349;28;20032;-79
2023/08/12 09:22:10;;;;;;;3.37;2.47;;;;;;;20.71;100.00;101340.28;5263327;28;20029;-81
2023/08/12 09:24:42;;;;;;;3.00;2.65;;;;;;;20.58;100.00;101345.28;5259978;28;20122;-81
2023/08/12 09:27:17;;;;;;;3.65;2.70;;;;;;;20.35;100.00;101354.22;5263070;28;20436;-80
2023/08/12 09:29:48;;;;;;;6.50;2.70;;;;;;;20.10;100.00;101344.75;5262480;28;20098;-79
2023/08/12 09:32:20;;;;;;;2.40;2.20;;;;;;;20.02;100.00;101350.38;5262164;28;20091;-79
2023/08/12 09:34:53;;;;;;;3.73;2.20;;;;;;;20.13;100.00;101354.34;5262432;28;20029;-79
2023/08/12 09:37:24;;;;;;;2.95;2.58;;;;;;;20.17;100.00;101356.81;5262498;28;20029;-80
2023/08/12 09:39:56;;;;;;;2.33;2.13;;;;;;;20.16;100.00;101355.06;5261109;28;20037;-80
2023/08/12 09:42:28;;;;;;;3.03;2.45;;;;;;;20.08;100.00;101349.25;5257438;28;20029;-81
2023/08/12 09:45:00;;;;;;;3.73;2.60;;;;;;;19.98;100.00;101355.84;5261519;28;20061;-82
2023/08/12 09:47:33;;;;;;;4.32;2.58;;;;;;;20.02;100.00;101354.81;5263136;28;20100;-79
2023/08/12 09:50:05;;;;;;;5.13;2.92;;;;;;;20.04;100.00;101353.81;5261444;28;20040;-78
2023/08/12 09:52:37;;;;;;;6.90;2.72;;;;;;;20.32;100.00;101355.25;5262704;28;20229;-77
2023/08/12 09:55:11;;;;;;;4.05;2.70;;;;;;;20.50;100.00;101353.56;5262792;28;20404;-78
2023/08/12 09:57:46;;;;;;;4.40;2.78;;;;;;;20.63;100.00;101358.31;5261102;28;20118;-79
2023/08/12 10:00:20;;;;;;;3.55;2.72;;;;;;;20.61;100.00;101360.13;5261297;28;20502;-80
2023/08/12 10:02:52;;;;;;;4.57;3.25;;;;;;;20.92;100.00;101368.44;5261639;28;20041;-79
2023/08/12 10:05:32;;;;;;;5.50;3.00;;;;;;;21.13;100.00;101378.94;5261446;28;20045;-79
2023/08/12 10:08:04;;;;;;;6.63;2.88;;;;;;;20.92;99.69;101372.88;5262116;28;20103;-80
2023/08/12 10:10:36;;;;;;;3.85;2.40;;;;;;;21.19;99.85;101369.81;5262091;28;20349;-79
2023/08/12 10:13:09;;;;;;;4.70;2.40;;;;;;;21.15;97.64;101374.44;5260208;28;20025;-80
2023/08/12 10:15:41;;;;;;;4.47;2.40;;;;;;;21.18;97.84;101376.09;5263236;28;20366;-79
2023/08/12 10:18:14;;;;;;;6.63;2.45;;;;;;;21.10;96.93;101376.44;5262751;28;20186;-78
2023/08/12 10:20:47;;;;;;;4.30;1.95;;;;;;;21.72;93.20;101370.81;5264429;28;20056;-80
2023/08/12 10:23:19;;;;;;;3.75;1.88;;;;;;;22.40;91.53;101378.84;5276703;28;20048;-79
2023/08/12 10:25:57;;;;;;;3.80;2.13;;;;;;;22.28;87.06;101379.47;5283500;28;20044;-80
2023/08/12 10:28:31;;;;;;;3.75;1.77;;;;;;;21.83;87.57;101379.09;5277017;28;20036;-80
2023/08/12 10:31:05;;;;;;;4.78;2.05;;;;;;;22.30;87.97;101381.13;5263001;28;20029;-79
2023/08/12 10:33:41;;;;;;;7.32;2.58;;;;;;;22.21;86.83;101361.19;5262173;28;20056;-80
2023/08/12 10:36:12;;;;;;;4.00;1.80;;;;;;;23.10;82.91;101358.22;5262751;28;20089;-80
2023/08/12 10:38:44;;;;;;;4.70;2.07;;;;;;;23.55;79.29;101365.44;5262284;28;20124;-80
2023/08/12 10:41:23;;;;;;;4.10;2.17;;;;;;;23.44;76.24;101366.94;5262729;28;20423;-79
2023/08/12 10:43:59;;;;;;;4.75;2.03;;;;;;;22.95;79.42;101370.53;5261638;28;20452;-79
2023/08/12 10:46:35;;;;;;;6.05;2.25;;;;;;;22.65;81.92;101372.22;5262224;28;20104;-81
2023/08/12 10:49:09;;;;;;;5.80;2.00;;;;;;;22.77;84.37;101376.88;5261050;28;20021;-79
2023/08/12 10:51:44;;;;;;;5.35;1.80;;;;;;;22.81;81.83;101377.53;5268310;28;20025;-78
2023/08/12 10:54:33;;;;;;;6.80;2.20;;;;;;;22.60;82.13;101385.75;5267438;28;20044;-80
2023/08/12 10:57:10;;;;;;;6.63;2.50;;;;;;;22.58;82.28;101380.50;5257459;28;20056;-79
2023/08/12 10:59:45;;;;;;;4.47;1.70;;;;;;;22.99;79.08;101376.53;5262511;28;20052;-79
2023/08/12 11:02:37;;;;;;;4.00;1.88;;;;;;;23.31;78.61;101379.19;5260188;28;20032;-79
2023/08/12 11:05:13;;;;;;;5.65;2.50;;;;;;;23.00;77.58;101394.19;5251087;28;20086;-79
2023/08/12 11:07:57;;;;;;;6.43;2.03;;;;;;;22.72;76.39;101387.75;5261332;28;20037;-81
2023/08/12 11:10:34;;;;;;;5.72;2.58;;;;;;;22.91;70.19;101397.34;5261220;28;20114;-78
2023/08/12 11:13:06;;;;;;;4.10;2.35;;;;;;;22.61;69.70;101403.41;5260633;28;20117;-80
2023/08/12 11:15:45;;;;;;;4.60;2.08;;;;;;;23.10;70.11;101389.25;5261139;28;20119;-79
2023/08/12 11:18:20;;;;;;;5.45;2.50;;;;;;;23.35;64.37;101393.22;5260401;28;20029;-80
2023/08/12 11:20:51;;;;;;;7.18;2.20;;;;;;;23.69;64.33;101385.94;5260288;28;20088;-79
2023/08/12 11:23:24;;;;;;;6.70;2.55;;;;;;;24.36;61.40;101381.06;5263612;28;20028;-80
2023/08/12 11:25:55;;;;;;;5.82;2.10;;;;;;;25.08;57.97;101379.22;5263813;28;20052;-82
2023/08/12 11:28:26;;;;;;;6.30;2.53;;;;;;;25.84;53.08;101374.22;5265142;28;20361;-81
2023/08/12 11:30:58;;;;;;;7.45;2.95;;;;;;;26.67;49.22;101373.00;5266009;28;20354;-80
2023/08/12 11:33:31;;;;;;;7.75;2.78;;;;;;;27.03;48.66;101369.50;5258651;28;20040;-82
2023/08/12 11:36:03;;;;;;;9.05;2.78;;;;;;;27.67;47.96;101372.84;5263828;28;20029;-82
2023/08/12 11:38:34;;;;;;;;;;;;;;;28.77;46.01;101370.59;5266524;28;20037;-81
2023/08/12 11:41:06;;;;;;;7.60;2.57;;;;;;;26.90;48.50;101376.69;5280589;28;19917;-79